Time;durP1;ratioP1;P1;durP2;ratioP2;P2;SDS_P1;SDS_P2;PMS_P1;PMS_P2;Temp;Humidity;BMP_temperature;BMP_pressure;BME280_temperature;BME280_humidity;BME280_pressure;Samples;Min_cycle;Max_cycle;Signal;HPM_P1;HPM_P2
2022/11/04 03:00:28;;;;;;;12.40;11.70;;;9.80;99.90;;;;;;6007473;23;21030;-83
2022/11/04 03:02:59;;;;;;;11.70;11.10;;;9.80;99.90;;;;;;4942833;29;20207;-85
2022/11/04 03:05:30;;;;;;;11.50;10.90;;;9.70;99.90;;;;;;4937061;29;20592;-85
2022/11/04 03:08:00;;;;;;;11.23;10.63;;;9.70;99.90;;;;;;4938434;29;20278;-85
2022/11/04 03:10:34;;;;;;;11.77;11.17;;;9.70;99.90;;;;;;4929297;29;20269;-85
2022/11/04 03:13:08;;;;;;;11.20;10.60;;;9.70;99.90;;;;;;4934587;29;20224;-85
2022/11/04 03:15:38;;;;;;;11.30;10.70;;;9.60;99.90;;;;;;4946546;29;20191;-85
2022/11/04 03:18:16;;;;;;;11.33;10.63;;;9.70;99.90;;;;;;4937521;29;20195;-85
2022/11/04 03:20:46;;;;;;;11.37;10.77;;;9.70;99.90;;;;;;4937979;29;20226;-85
2022/11/04 03:23:13;;;;;;;12.40;11.70;;;9.60;99.90;;;;;;4938486;29;20234;-85
2022/11/04 03:25:43;;;;;;;11.70;11.10;;;9.60;99.90;;;;;;4936585;29;20212;-85
2022/11/04 03:28:22;;;;;;;11.30;10.70;;;9.60;99.90;;;;;;4937613;29;20335;-85
2022/11/04 03:30:55;;;;;;;11.67;11.07;;;9.60;99.90;;;;;;4938237;29;20777;-85
2022/11/04 03:33:27;;;;;;;11.90;11.10;;;9.60;99.90;;;;;;4937434;29;20210;-85
2022/11/04 03:35:54;;;;;;;12.30;11.70;;;9.60;99.90;;;;;;4937410;29;20251;-85
2022/11/04 03:38:22;;;;;;;11.90;11.30;;;9.50;99.90;;;;;;4937001;29;20601;-85
2022/11/04 03:40:49;;;;;;;12.33;11.73;;;9.60;99.90;;;;;;4933577;29;20223;-84
2022/11/04 03:43:20;;;;;;;12.93;12.20;;;9.50;99.90;;;;;;4938384;29;20203;-83
2022/11/04 03:45:48;;;;;;;11.50;10.80;;;9.50;99.90;;;;;;4939997;29;20211;-84
2022/11/04 03:48:16;;;;;;;11.80;11.20;;;9.40;99.90;;;;;;4940796;29;20199;-84
2022/11/04 03:50:46;;;;;;;12.03;11.33;;;9.50;99.90;;;;;;4926326;29;20322;-83
2022/11/04 03:53:16;;;;;;;11.80;11.20;;;9.40;99.90;;;;;;4937032;29;20270;-83
2022/11/04 03:55:51;;;;;;;12.90;12.20;;;9.40;99.90;;;;;;4936210;29;20668;-84
2022/11/04 03:58:31;;;;;;;12.90;12.20;;;9.40;99.90;;;;;;4937175;29;20690;-83
2022/11/04 04:01:06;;;;;;;13.30;12.50;;;9.40;99.90;;;;;;4934180;29;20580;-83
2022/11/04 04:03:39;;;;;;;12.70;12.00;;;9.40;99.90;;;;;;4936245;29;20202;-83
2022/11/04 04:06:12;;;;;;;12.77;12.07;;;9.30;99.90;;;;;;4941763;28;20222;-83
2022/11/04 04:08:43;;;;;;;13.10;12.30;;;9.30;99.90;;;;;;4935699;29;20212;-83
2022/11/04 04:11:18;;;;;;;13.47;12.77;;;9.30;99.90;;;;;;4937787;29;20706;-83
2022/11/04 04:13:52;;;;;;;12.47;11.77;;;9.20;99.90;;;;;;4934447;29;20686;-80
2022/11/04 04:16:22;;;;;;;12.37;11.77;;;9.20;99.90;;;;;;4936635;29;20198;-81
2022/11/04 04:18:54;;;;;;;12.80;12.10;;;9.20;99.90;;;;;;4936017;29;20196;-83
2022/11/04 04:21:26;;;;;;;13.00;12.30;;;9.20;99.90;;;;;;4935952;29;20223;-83
2022/11/04 04:29:27;;;;;;;13.10;12.40;;;9.10;99.90;;;;;;4935750;29;20286;-83
2022/11/04 04:31:57;;;;;;;12.80;12.10;;;9.20;99.90;;;;;;4936362;29;20223;-84
2022/11/04 04:34:27;;;;;;;15.37;14.57;;;9.10;99.90;;;;;;4936204;29;20264;-83
2022/11/04 04:37:00;;;;;;;13.20;12.50;;;9.20;99.90;;;;;;4936342;29;20207;-84
2022/11/04 04:45:05;;;;;;;12.10;11.47;;;9.20;99.90;;;;;;4936376;29;20194;-83
2022/11/04 04:47:42;;;;;;;13.30;12.53;;;9.10;99.90;;;;;;4938551;29;20230;-84
2022/11/04 04:50:14;;;;;;;12.90;12.20;;;9.10;99.90;;;;;;4935298;29;20208;-84
2022/11/04 04:52:44;;;;;;;13.33;12.63;;;9.10;99.90;;;;;;4933869;29;20223;-83
2022/11/04 04:55:12;;;;;;;13.70;13.00;;;9.10;99.90;;;;;;4940529;29;20194;-83
2022/11/04 04:57:39;;;;;;;14.03;13.33;;;9.10;99.90;;;;;;4937484;29;20618;-82
2022/11/04 05:00:09;;;;;;;13.60;12.90;;;9.10;99.90;;;;;;4939084;29;20202;-83
2022/11/04 05:02:35;;;;;;;13.63;12.83;;;9.00;99.90;;;;;;4936602;29;20254;-85
2022/11/04 05:05:02;;;;;;;14.60;13.80;;;9.00;99.90;;;;;;4937998;29;20207;-83
2022/11/04 05:07:31;;;;;;;14.23;13.53;;;9.00;99.90;;;;;;4936228;29;20250;-83
2022/11/04 05:09:57;;;;;;;15.47;14.67;;;9.00;99.90;;;;;;4942812;29;20206;-86
2022/11/04 05:12:24;;;;;;;13.60;12.90;;;9.00;99.90;;;;;;4947057;29;20219;-85
2022/11/04 05:14:51;;;;;;;14.00;13.30;;;8.90;99.90;;;;;;4941048;28;20358;-86
2022/11/04 05:17:18;;;;;;;14.53;13.60;;;8.80;99.90;;;;;;4936004;29;20191;-86
2022/11/04 05:19:45;;;;;;;14.17;13.37;;;8.80;99.90;;;;;;4935441;29;20303;-86
2022/11/04 05:22:12;;;;;;;14.23;13.43;;;8.80;99.90;;;;;;4935588;29;20211;-86
2022/11/04 05:24:40;;;;;;;13.90;13.20;;;8.80;99.90;;;;;;4937626;29;20214;-84
2022/11/04 05:27:07;;;;;;;13.87;13.07;;;8.80;99.90;;;;;;4936583;29;20619;-86
2022/11/04 05:29:34;;;;;;;13.90;13.00;;;8.80;99.90;;;;;;4936013;29;20214;-87
2022/11/04 05:32:00;;;;;;;14.23;13.43;;;8.80;99.90;;;;;;4940280;29;20238;-86
2022/11/04 05:34:27;;;;;;;13.50;12.80;;;8.80;99.90;;;;;;4940018;29;20683;-84
2022/11/04 05:36:54;;;;;;;14.20;13.40;;;8.80;99.90;;;;;;4939918;29;20624;-86
2022/11/04 05:39:21;;;;;;;13.83;13.10;;;8.80;99.90;;;;;;4938578;29;20203;-86
2022/11/04 05:41:49;;;;;;;14.07;13.27;;;8.80;99.90;;;;;;4939587;29;20526;-84
2022/11/04 05:44:16;;;;;;;13.67;12.87;;;8.80;99.90;;;;;;4939483;29;20521;-87
2022/11/04 05:46:43;;;;;;;13.87;13.07;;;8.80;99.90;;;;;;4938941;29;20306;-87
2022/11/04 05:49:10;;;;;;;14.10;13.20;;;8.80;99.90;;;;;;4938730;29;20660;-87
2022/11/04 05:51:37;;;;;;;14.10;13.30;;;8.80;99.90;;;;;;4938043;29;20695;-87
2022/11/04 05:54:04;;;;;;;14.17;13.23;;;8.80;99.90;;;;;;4938533;29;20218;-87
2022/11/04 05:56:31;;;;;;;14.00;13.20;;;8.80;99.90;;;;;;4938784;29;20250;-87
2022/11/04 05:58:59;;;;;;;13.80;12.90;;;8.80;99.90;;;;;;4939034;29;20798;-86
2022/11/04 06:01:32;;;;;;;14.00;13.20;;;8.80;99.90;;;;;;4937582;29;20782;-87
2022/11/04 06:04:00;;;;;;;13.80;13.00;;;8.70;99.90;;;;;;4938222;29;20199;-84
2022/11/04 06:06:29;;;;;;;13.80;13.03;;;8.70;99.90;;;;;;4931279;29;20225;-87
2022/11/04 06:08:56;;;;;;;14.47;13.60;;;8.60;99.90;;;;;;4938899;29;20203;-86
2022/11/04 06:11:25;;;;;;;14.07;13.07;;;8.50;99.90;;;;;;4938662;29;20223;-87
2022/11/04 06:13:54;;;;;;;14.90;14.00;;;8.50;99.90;;;;;;4938864;29;20187;-86
2022/11/04 06:16:23;;;;;;;14.00;13.20;;;8.50;99.90;;;;;;4939817;29;20219;-85
2022/11/04 06:18:50;;;;;;;14.23;13.43;;;8.40;99.90;;;;;;4938336;29;20191;-86
2022/11/04 06:21:24;;;;;;;14.03;13.13;;;8.40;99.90;;;;;;4937852;29;20223;-86
2022/11/04 06:23:52;;;;;;;13.17;12.37;;;8.30;99.90;;;;;;4938555;29;20199;-86
2022/11/04 06:26:19;;;;;;;12.83;12.03;;;8.30;99.90;;;;;;4938622;29;20219;-86
2022/11/04 06:28:46;;;;;;;13.30;12.40;;;8.20;99.90;;;;;;4938116;29;20656;-86
2022/11/04 06:31:14;;;;;;;13.83;12.93;;;8.30;99.90;;;;;;4938122;29;20227;-86
2022/11/04 06:33:42;;;;;;;12.90;12.20;;;8.20;99.90;;;;;;4938460;29;20203;-87
2022/11/04 06:36:12;;;;;;;13.53;12.73;;;8.30;99.90;;;;;;4939955;28;20204;-84
2022/11/04 06:38:39;;;;;;;12.97;12.17;;;8.30;99.90;;;;;;4937451;29;20211;-84
2022/11/04 06:41:08;;;;;;;12.87;11.93;;;8.30;99.90;;;;;;4937029;29;20226;-85
2022/11/04 06:43:34;;;;;;;13.10;12.33;;;8.40;99.90;;;;;;4937780;29;20206;-86
2022/11/04 06:46:03;;;;;;;12.97;12.17;;;8.40;99.90;;;;;;4936631;29;20672;-86
2022/11/04 06:48:31;;;;;;;13.27;12.47;;;8.40;99.90;;;;;;4933300;29;20231;-86
2022/11/04 06:51:00;;;;;;;12.87;12.10;;;8.40;99.90;;;;;;4935989;29;20216;-86
2022/11/04 06:53:27;;;;;;;13.67;12.77;;;8.40;99.90;;;;;;4930432;29;20239;-86
2022/11/04 06:56:01;;;;;;;13.73;12.30;;;8.40;99.90;;;;;;4939129;29;20437;-84
2022/11/04 06:58:28;;;;;;;12.50;11.80;;;8.50;99.90;;;;;;4931518;29;20266;-85
2022/11/04 07:00:55;;;;;;;12.80;12.10;;;8.50;99.90;;;;;;4937631;29;20238;-85
2022/11/04 07:03:22;;;;;;;13.03;12.33;;;8.50;99.90;;;;;;4939538;29;20704;-85
2022/11/04 07:05:49;;;;;;;13.37;12.47;;;8.50;99.90;;;;;;4938167;29;20235;-84
2022/11/04 07:08:17;;;;;;;12.93;12.23;;;8.50;99.90;;;;;;4942811;29;20199;-83
2022/11/04 07:10:44;;;;;;;13.10;12.30;;;8.60;99.90;;;;;;4944725;29;20367;-83
2022/11/04 07:13:11;;;;;;;12.53;11.83;;;8.60;99.90;;;;;;4944507;29;20216;-83
2022/11/04 07:15:39;;;;;;;13.50;12.60;;;8.60;99.90;;;;;;4945142;29;20206;-82
2022/11/04 07:18:06;;;;;;;12.30;11.60;;;8.70;99.90;;;;;;4943957;29;20263;-81
2022/11/04 07:20:33;;;;;;;12.80;12.00;;;8.70;99.90;;;;;;4941975;29;20203;-82
2022/11/04 07:23:00;;;;;;;12.40;11.70;;;8.70;99.90;;;;;;4941644;29;20223;-83
2022/11/04 07:25:28;;;;;;;12.90;12.20;;;8.80;99.90;;;;;;4940590;29;20203;-84
2022/11/04 07:27:55;;;;;;;13.23;12.40;;;8.90;99.90;;;;;;4935691;29;20594;-84
2022/11/04 07:30:23;;;;;;;13.67;12.80;;;8.90;99.90;;;;;;4935994;29;20207;-87
2022/11/04 07:32:49;;;;;;;13.27;12.47;;;8.90;99.90;;;;;;4936668;29;20226;-86
2022/11/04 07:35:16;;;;;;;13.40;12.60;;;9.00;99.90;;;;;;4936782;29;20210;-86
2022/11/04 07:37:43;;;;;;;13.20;12.40;;;9.00;99.90;;;;;;4936994;29;20223;-84
2022/11/04 07:40:12;;;;;;;13.07;12.27;;;9.00;99.90;;;;;;4938572;29;20199;-86
2022/11/04 07:42:40;;;;;;;12.83;12.00;;;9.00;99.90;;;;;;4937459;29;20270;-85
2022/11/04 07:45:09;;;;;;;13.07;12.37;;;9.10;99.90;;;;;;4937620;29;20199;-84
2022/11/04 07:47:36;;;;;;;13.07;12.37;;;9.20;99.90;;;;;;4936976;29;20223;-86
2022/11/04 07:50:05;;;;;;;12.80;12.00;;;9.20;99.90;;;;;;4936659;29;20199;-86
2022/11/04 07:52:32;;;;;;;12.90;12.20;;;9.30;99.90;;;;;;4935983;29;20231;-86
2022/11/04 07:54:58;;;;;;;13.50;12.70;;;9.40;99.90;;;;;;4938036;29;20209;-87
2022/11/04 07:57:25;;;;;;;13.70;12.90;;;9.40;99.90;;;;;;4937519;29;20199;-86
2022/11/04 07:59:54;;;;;;;13.53;12.73;;;9.40;99.90;;;;;;4937381;29;20242;-86
2022/11/04 08:02:20;;;;;;;13.03;12.23;;;9.50;99.90;;;;;;4937163;29;20230;-86
2022/11/04 08:04:47;;;;;;;13.13;12.23;;;9.50;99.90;;;;;;4937419;29;20630;-86
2022/11/04 08:07:14;;;;;;;12.83;12.13;;;9.60;99.90;;;;;;4936606;29;20665;-82
2022/11/04 08:09:41;;;;;;;13.20;12.30;;;9.70;99.90;;;;;;4942043;29;20207;-83
2022/11/04 08:12:08;;;;;;;13.13;12.43;;;9.80;99.90;;;;;;4936181;29;20227;-83
2022/11/04 08:14:36;;;;;;;13.73;12.93;;;9.80;99.90;;;;;;4936789;29;20220;-84
2022/11/04 08:17:04;;;;;;;13.90;13.00;;;9.90;99.90;;;;;;4935344;29;20202;-84
2022/11/04 08:19:31;;;;;;;13.90;13.00;;;10.00;99.90;;;;;;4937247;29;20199;-84
2022/11/04 08:21:58;;;;;;;13.93;12.80;;;10.10;99.90;;;;;;4935686;29;20226;-84
2022/11/04 08:24:25;;;;;;;12.57;11.77;;;10.30;99.90;;;;;;4934400;29;20471;-84
2022/11/04 08:26:54;;;;;;;14.03;13.07;;;10.40;99.90;;;;;;4935485;29;20213;-85
2022/11/04 08:29:20;;;;;;;12.60;11.80;;;10.50;99.90;;;;;;4935772;29;20375;-84
2022/11/04 08:31:47;;;;;;;13.37;12.20;;;10.60;99.90;;;;;;4936488;29;20320;-85
2022/11/04 08:34:17;;;;;;;12.27;11.33;;;10.70;99.90;;;;;;4935104;29;20201;-86
2022/11/04 08:36:45;;;;;;;13.50;12.70;;;10.80;99.90;;;;;;4936456;29;20260;-85
2022/11/04 08:39:13;;;;;;;14.03;13.13;;;10.90;99.90;;;;;;4936081;29;20235;-86
2022/11/04 08:41:44;;;;;;;9.27;8.63;;;10.90;99.90;;;;;;4935532;29;20404;-85
2022/11/04 08:44:13;;;;;;;4.90;4.13;;;10.90;99.90;;;;;;4935751;29;20299;-86
2022/11/04 08:46:41;;;;;;;12.10;11.40;;;11.00;99.90;;;;;;4935387;29;20574;-86
2022/11/04 08:49:08;;;;;;;12.23;11.40;;;11.00;99.90;;;;;;4936958;29;20198;-85
2022/11/04 08:51:38;;;;;;;12.00;11.20;;;11.10;99.90;;;;;;4935024;29;20461;-85
2022/11/04 08:54:05;;;;;;;13.30;12.40;;;11.10;99.90;;;;;;4935701;29;20288;-86
2022/11/04 08:56:35;;;;;;;12.60;11.70;;;11.10;99.90;;;;;;4936076;29;20526;-86
2022/11/04 08:59:03;;;;;;;12.73;11.73;;;11.10;99.90;;;;;;4936652;29;20222;-86
2022/11/04 09:01:34;;;;;;;12.37;11.57;;;11.10;99.90;;;;;;4935233;29;20700;-85
2022/11/04 09:04:01;;;;;;;13.97;13.17;;;11.20;99.90;;;;;;4938024;29;20210;-86
2022/11/04 09:06:31;;;;;;;12.70;12.00;;;11.10;99.90;;;;;;4939314;29;20672;-83
2022/11/04 09:09:02;;;;;;;9.00;8.50;;;11.10;99.90;;;;;;4939438;29;20238;-84
2022/11/04 09:11:31;;;;;;;3.10;2.90;;;11.10;99.90;;;;;;4955381;28;20221;-83
2022/11/04 09:14:00;;;;;;;3.80;3.40;;;11.10;99.90;;;;;;4948990;29;20681;-83
2022/11/04 09:16:28;;;;;;;3.27;3.07;;;11.10;99.90;;;;;;4949046;29;20748;-83
2022/11/04 09:18:56;;;;;;;4.40;2.70;;;11.10;99.90;;;;;;4949899;29;20209;-83
2022/11/04 09:21:24;;;;;;;3.73;2.70;;;11.10;99.90;;;;;;4948028;29;20260;-83
2022/11/04 09:23:51;;;;;;;2.93;2.60;;;11.10;99.90;;;;;;4949567;29;20201;-83
2022/11/04 09:26:19;;;;;;;3.93;2.93;;;11.10;99.90;;;;;;4949875;29;20264;-83
2022/11/04 09:28:46;;;;;;;3.33;3.03;;;11.10;99.90;;;;;;4948620;29;20706;-83
2022/11/04 09:31:15;;;;;;;3.47;2.77;;;11.20;99.90;;;;;;4948039;29;20246;-83
2022/11/04 09:33:43;;;;;;;2.90;2.70;;;11.30;99.90;;;;;;4949644;29;20204;-83
2022/11/04 09:36:11;;;;;;;3.53;2.90;;;11.30;99.90;;;;;;4949120;29;20213;-83
2022/11/04 09:38:39;;;;;;;2.90;2.70;;;11.40;99.90;;;;;;4948110;29;20671;-83
2022/11/04 09:41:25;;;;;;;2.97;2.63;;;11.50;99.90;;;;;;4947841;29;20695;-83
2022/11/04 09:43:59;;;;;;;4.50;2.93;;;11.50;99.90;;;;;;4951277;29;20197;-83
2022/11/04 09:46:29;;;;;;;4.73;2.67;;;11.60;99.90;;;;;;4945533;29;20292;-84
2022/11/04 09:48:57;;;;;;;3.20;2.90;;;11.60;99.90;;;;;;4943117;29;20229;-83
2022/11/04 09:51:26;;;;;;;5.53;2.90;;;11.80;99.90;;;;;;4949337;29;20226;-85
2022/11/04 09:54:00;;;;;;;11.13;10.43;;;11.90;99.90;;;;;;4949133;29;20597;-84
2022/11/04 09:56:33;;;;;;;11.20;10.40;;;12.10;99.90;;;;;;4949035;29;20207;-85
2022/11/04 09:59:03;;;;;;;4.77;3.20;;;12.20;99.90;;;;;;4948934;29;20524;-84
2022/11/04 10:01:37;;;;;;;3.60;3.30;;;12.30;99.90;;;;;;4942623;29;20235;-84
2022/11/04 10:04:18;;;;;;;11.37;10.57;;;12.40;99.90;;;;;;4950300;29;20206;-83
2022/11/04 10:07:00;;;;;;;10.80;10.10;;;12.40;99.90;;;;;;4944531;29;20194;-85
2022/11/04 10:09:43;;;;;;;9.90;9.30;;;12.50;99.90;;;;;;4947764;29;20210;-84
2022/11/04 10:12:25;;;;;;;10.23;9.30;;;12.40;99.90;;;;;;4946127;29;20215;-85
2022/11/04 10:15:04;;;;;;;10.13;9.53;;;12.40;99.90;;;;;;4947602;29;20199;-84
2022/11/04 10:17:54;;;;;;;10.13;9.37;;;12.40;99.90;;;;;;4946207;29;20195;-84
2022/11/04 10:20:34;;;;;;;10.50;9.80;;;12.30;99.90;;;;;;4946507;29;20233;-84
2022/11/04 10:23:09;;;;;;;10.00;9.40;;;12.40;99.90;;;;;;4948546;29;20203;-85
2022/11/04 10:25:44;;;;;;;9.97;9.20;;;12.40;99.90;;;;;;4942407;29;20210;-84
2022/11/04 10:28:15;;;;;;;10.37;9.67;;;12.40;99.90;;;;;;4940497;29;20226;-84
2022/11/04 10:30:44;;;;;;;10.53;9.83;;;12.60;99.90;;;;;;4939399;29;20197;-84
2022/11/04 10:33:16;;;;;;;9.93;9.30;;;12.70;99.90;;;;;;4940400;29;20523;-84
2022/11/04 10:35:47;;;;;;;9.30;8.60;;;12.70;99.90;;;;;;4933093;29;20199;-84
2022/11/04 10:38:18;;;;;;;9.10;8.57;;;12.90;99.90;;;;;;4938107;29;20554;-84
2022/11/04 10:40:48;;;;;;;8.37;7.70;;;13.00;99.90;;;;;;4938761;29;20218;-84
2022/11/04 10:43:23;;;;;;;7.50;7.03;;;13.00;99.90;;;;;;4937513;29;20203;-84
2022/11/04 10:46:04;;;;;;;9.93;9.33;;;13.00;99.90;;;;;;4938415;29;20199;-84
2022/11/04 10:48:38;;;;;;;10.50;9.80;;;13.00;99.90;;;;;;4931723;29;20246;-84
2022/11/04 10:51:05;;;;;;;10.57;9.97;;;13.00;99.90;;;;;;4939536;29;20215;-83
2022/11/04 10:53:33;;;;;;;5.10;4.70;;;13.00;99.90;;;;;;4938054;29;20209;-84
2022/11/04 10:56:06;;;;;;;4.10;2.90;;;13.00;99.90;;;;;;4944278;29;20656;-85
2022/11/04 10:58:39;;;;;;;3.77;2.63;;;12.90;99.90;;;;;;4938972;29;20618;-81
2022/11/04 11:01:25;;;;;;;2.67;2.47;;;13.00;99.90;;;;;;4938188;29;20235;-83
2022/11/04 11:03:53;;;;;;;3.83;2.60;;;13.10;99.90;;;;;;4937669;29;20195;-83
2022/11/04 11:06:25;;;;;;;8.33;7.83;;;13.10;99.90;;;;;;4937558;29;20203;-83
2022/11/04 11:08:54;;;;;;;8.10;7.30;;;13.10;99.90;;;;;;4937719;29;20882;-84
2022/11/04 11:11:37;;;;;;;9.03;8.43;;;13.10;99.90;;;;;;4937944;29;20284;-84
2022/11/04 11:14:14;;;;;;;9.50;8.83;;;13.10;99.90;;;;;;4938816;29;20211;-84
2022/11/04 11:16:41;;;;;;;10.50;9.73;;;13.20;99.90;;;;;;4938759;29;20220;-83
2022/11/04 11:19:16;;;;;;;3.73;3.50;;;13.20;99.90;;;;;;4939071;29;20199;-84
2022/11/04 11:21:46;;;;;;;4.03;2.77;;;13.30;99.90;;;;;;4937450;29;20233;-83
2022/11/04 11:24:16;;;;;;;2.70;2.47;;;13.20;99.90;;;;;;4939048;29;20325;-83
2022/11/04 11:26:47;;;;;;;3.03;2.47;;;13.30;99.90;;;;;;4936714;29;20200;-83
2022/11/04 11:29:21;;;;;;;10.40;9.70;;;13.40;99.90;;;;;;4937285;29;20216;-84
2022/11/04 11:31:48;;;;;;;10.77;10.17;;;13.60;99.90;;;;;;4937192;29;20253;-83
2022/11/04 11:34:19;;;;;;;11.37;10.57;;;13.60;99.90;;;;;;4937635;29;20200;-84
2022/11/04 11:36:46;;;;;;;11.17;10.47;;;13.60;99.90;;;;;;4932392;29;20210;-83
2022/11/04 11:39:18;;;;;;;10.37;9.70;;;13.70;99.90;;;;;;4937496;29;20202;-83
2022/11/04 11:41:53;;;;;;;9.67;8.97;;;13.70;99.90;;;;;;4937574;29;20248;-81
2022/11/04 11:44:26;;;;;;;10.30;9.60;;;13.70;99.90;;;;;;4937994;29;20204;-84
2022/11/04 11:46:55;;;;;;;10.20;9.60;;;13.70;99.90;;;;;;4937229;29;20208;-83
2022/11/04 11:49:27;;;;;;;10.47;9.77;;;13.70;99.90;;;;;;4937871;29;20270;-83
2022/11/04 11:51:55;;;;;;;9.90;9.30;;;13.70;99.90;;;;;;4938368;29;20213;-84
2022/11/04 11:54:31;;;;;;;9.87;9.17;;;13.70;99.90;;;;;;4937399;29;20211;-83
2022/11/04 11:57:02;;;;;;;10.67;9.90;;;13.70;99.90;;;;;;4934022;29;20331;-84
2022/11/04 11:59:38;;;;;;;10.40;9.70;;;13.80;99.90;;;;;;4936010;29;20676;-83
2022/11/04 12:02:23;;;;;;;10.40;9.70;;;13.80;99.90;;;;;;4937055;29;20235;-83
2022/11/04 12:04:50;;;;;;;11.00;10.30;;;13.80;99.90;;;;;;4938800;29;20201;-84
2022/11/04 12:07:23;;;;;;;11.70;11.00;;;13.80;99.90;;;;;;4936394;29;20200;-84
2022/11/04 12:09:59;;;;;;;10.33;9.53;;;13.80;99.90;;;;;;4937221;29;20202;-84
2022/11/04 12:12:44;;;;;;;3.43;2.30;;;13.80;99.90;;;;;;4936481;29;20253;-84
2022/11/04 12:15:32;;;;;;;3.77;3.13;;;13.80;99.90;;;;;;4935664;29;20211;-84
2022/11/04 12:18:13;;;;;;;2.73;2.53;;;13.80;99.90;;;;;;4935650;29;20201;-83
2022/11/04 12:20:50;;;;;;;3.67;2.60;;;13.70;99.90;;;;;;4930526;29;20274;-83
2022/11/04 12:23:23;;;;;;;6.87;2.90;;;13.80;99.90;;;;;;4937589;29;20196;-83
2022/11/04 12:26:02;;;;;;;4.53;3.23;;;13.80;99.90;;;;;;4938220;29;20211;-84
2022/11/04 12:28:38;;;;;;;2.57;2.37;;;13.80;99.90;;;;;;4938627;29;20230;-84
2022/11/04 12:31:17;;;;;;;2.77;2.50;;;13.80;99.90;;;;;;4941505;29;20229;-84
2022/11/04 12:33:51;;;;;;;4.03;3.00;;;13.90;99.90;;;;;;4927795;29;20204;-83
2022/11/04 12:36:30;;;;;;;3.17;2.70;;;14.00;99.90;;;;;;4929894;29;20704;-84
2022/11/04 12:39:11;;;;;;;6.00;5.60;;;14.10;99.90;;;;;;4947624;29;20194;-84
2022/11/04 12:41:45;;;;;;;2.80;2.60;;;14.20;99.90;;;;;;4940223;29;20664;-84
2022/11/04 12:44:21;;;;;;;5.70;5.20;;;14.20;99.90;;;;;;4945034;29;20630;-84
2022/11/04 12:46:57;;;;;;;3.17;2.93;;;14.30;99.90;;;;;;4946084;29;20494;-84
2022/11/04 12:49:38;;;;;;;9.30;8.70;;;14.30;99.90;;;;;;4944692;29;20613;-84
2022/11/04 12:52:18;;;;;;;10.10;9.50;;;14.40;99.90;;;;;;4946180;29;20218;-84
2022/11/04 12:55:04;;;;;;;9.37;8.70;;;14.40;99.90;;;;;;4939878;29;20205;-84
2022/11/04 12:57:38;;;;;;;9.27;8.57;;;14.50;99.90;;;;;;4939409;29;20197;-84
2022/11/04 13:00:14;;;;;;;5.83;2.50;;;14.50;99.90;;;;;;4942671;29;20214;-84
2022/11/04 13:02:47;;;;;;;3.87;2.60;;;14.70;99.90;;;;;;4945864;29;20743;-84
2022/11/04 13:05:34;;;;;;;3.47;2.73;;;14.70;99.90;;;;;;4948163;29;20192;-82
2022/11/04 13:08:09;;;;;;;2.80;2.60;;;14.70;99.90;;;;;;4945325;29;20611;-84
2022/11/04 13:10:42;;;;;;;4.30;3.93;;;14.80;99.90;;;;;;4938715;29;20215;-84
2022/11/04 13:13:11;;;;;;;9.07;8.57;;;14.90;99.90;;;;;;4944307;29;20210;-84
2022/11/04 13:15:45;;;;;;;8.70;8.10;;;14.90;99.90;;;;;;4944137;29;20225;-84
2022/11/04 13:18:19;;;;;;;11.17;10.37;;;14.90;99.90;;;;;;4944439;29;20292;-84
2022/11/04 13:20:52;;;;;;;10.00;9.33;;;14.90;99.90;;;;;;4943669;29;20241;-84
2022/11/04 13:23:23;;;;;;;9.70;9.00;;;14.90;99.90;;;;;;4944524;29;20204;-84
2022/11/04 13:25:51;;;;;;;9.77;9.10;;;14.80;99.90;;;;;;4944588;29;20203;-84
2022/11/04 13:28:21;;;;;;;10.23;9.53;;;14.80;99.90;;;;;;4947033;29;20218;-84
2022/11/04 13:30:54;;;;;;;9.53;8.73;;;14.80;99.90;;;;;;4944080;29;20510;-80
2022/11/04 13:33:33;;;;;;;10.03;9.30;;;14.80;99.90;;;;;;4938332;29;20229;-81
2022/11/04 13:36:08;;;;;;;9.77;8.97;;;14.80;99.90;;;;;;4933440;29;20207;-82
2022/11/04 13:38:39;;;;;;;9.97;9.20;;;14.80;99.90;;;;;;4934914;29;20210;-82
2022/11/04 13:41:32;;;;;;;9.77;9.17;;;14.80;99.90;;;;;;4937455;29;20223;-81
2022/11/04 13:44:03;;;;;;;9.50;8.90;;;14.90;99.90;;;;;;4936783;29;20218;-82
2022/11/04 13:46:33;;;;;;;9.93;9.13;;;14.80;99.90;;;;;;4936272;29;20205;-81
2022/11/04 13:49:05;;;;;;;9.83;9.23;;;14.80;99.90;;;;;;4938174;29;20218;-82
2022/11/04 13:51:43;;;;;;;9.63;9.03;;;14.70;99.90;;;;;;4937722;29;20259;-82
2022/11/04 13:54:26;;;;;;;5.67;5.17;;;14.70;99.90;;;;;;4936822;29;20200;-81
2022/11/04 13:57:04;;;;;;;2.27;2.00;;;14.70;99.90;;;;;;4931106;29;20203;-81
2022/11/04 13:59:31;;;;;;;7.40;6.80;;;14.70;99.90;;;;;;4928318;29;20308;-79
2022/11/04 14:02:24;;;;;;;3.37;2.40;;;14.70;99.90;;;;;;4938288;29;20308;-82
2022/11/04 14:04:55;;;;;;;7.13;6.63;;;14.60;99.90;;;;;;4929129;29;20292;-82
2022/11/04 14:08:08;;;;;;;9.23;8.33;;;14.60;99.90;;;;;;4946237;29;20218;-83
2022/11/04 14:10:42;;;;;;;9.20;8.60;;;14.50;99.90;;;;;;4932487;29;20201;-82
2022/11/04 14:13:44;;;;;;;10.07;9.37;;;14.40;99.90;;;;;;4938603;29;20566;-81
2022/11/04 14:16:14;;;;;;;10.63;9.87;;;14.30;99.90;;;;;;4938865;29;20702;-82
2022/11/04 14:18:42;;;;;;;11.90;11.10;;;14.20;99.90;;;;;;4942159;29;20270;-82
2022/11/04 14:21:12;;;;;;;9.20;8.57;;;14.10;99.90;;;;;;4937826;29;20232;-82
2022/11/04 14:23:41;;;;;;;9.20;8.50;;;14.00;99.90;;;;;;4945027;29;20193;-82
2022/11/04 14:26:10;;;;;;;10.13;9.43;;;13.90;99.90;;;;;;4942668;29;20194;-83
2022/11/04 14:28:40;;;;;;;9.80;9.20;;;13.80;99.90;;;;;;4941984;29;20699;-82
2022/11/04 14:31:09;;;;;;;9.80;9.10;;;13.70;99.90;;;;;;4940516;29;20220;-82
2022/11/04 14:33:40;;;;;;;10.00;9.10;;;13.70;99.90;;;;;;4941307;29;20258;-83
2022/11/04 14:36:35;;;;;;;9.77;9.03;;;13.60;99.90;;;;;;4940430;29;20255;-82
2022/11/04 14:39:07;;;;;;;9.23;8.63;;;13.60;99.90;;;;;;4935576;29;20192;-82
2022/11/04 14:41:52;;;;;;;9.30;8.70;;;13.50;99.90;;;;;;4938191;29;20223;-81
2022/11/04 14:44:26;;;;;;;9.70;9.10;;;13.50;99.90;;;;;;4938369;29;20672;-82
2022/11/04 14:46:58;;;;;;;9.10;8.60;;;13.40;99.90;;;;;;4938813;29;20653;-84
2022/11/04 14:49:39;;;;;;;9.40;8.80;;;13.40;99.90;;;;;;4939390;29;20219;-85
2022/11/04 14:52:16;;;;;;;10.53;9.73;;;13.30;99.90;;;;;;4938148;29;20227;-81
2022/11/04 14:54:43;;;;;;;10.60;9.90;;;13.10;99.90;;;;;;4932078;29;20248;-81
2022/11/04 14:57:16;;;;;;;10.13;9.47;;;13.00;99.90;;;;;;4936900;29;20258;-81
2022/11/04 14:59:43;;;;;;;10.10;9.50;;;12.90;99.90;;;;;;4935972;29;20206;-80
2022/11/04 15:02:15;;;;;;;10.40;9.80;;;12.70;99.90;;;;;;4936813;29;20227;-80
2022/11/04 15:04:48;;;;;;;11.10;10.30;;;12.60;99.90;;;;;;4937128;29;20199;-81
2022/11/04 15:07:35;;;;;;;10.57;9.77;;;12.50;99.90;;;;;;4934453;29;20242;-80
2022/11/04 15:10:17;;;;;;;9.63;9.07;;;12.40;99.90;;;;;;4933674;29;20211;-80
2022/11/04 15:12:53;;;;;;;10.23;9.53;;;12.30;99.90;;;;;;4932374;29;20211;-81
2022/11/04 15:15:43;;;;;;;9.53;8.93;;;12.30;99.90;;;;;;4935813;29;20214;-80
2022/11/04 15:18:15;;;;;;;10.33;9.57;;;12.10;99.90;;;;;;4935541;29;20207;-80
2022/11/04 15:20:47;;;;;;;9.53;9.03;;;12.00;99.90;;;;;;4935373;29;20246;-81
2022/11/04 15:23:22;;;;;;;10.47;9.57;;;11.90;99.90;;;;;;4936508;29;20568;-81
2022/11/04 15:25:50;;;;;;;9.80;9.20;;;11.80;99.90;;;;;;4937211;29;20210;-81
2022/11/04 15:28:22;;;;;;;10.10;9.37;;;11.70;99.90;;;;;;4937494;29;20202;-80
2022/11/04 15:31:02;;;;;;;9.77;9.10;;;11.70;99.90;;;;;;4936328;29;20223;-81
2022/11/04 15:33:30;;;;;;;9.80;9.10;;;11.60;99.90;;;;;;4929150;29;20208;-81
2022/11/04 15:35:58;;;;;;;9.63;9.02;;;11.50;99.90;;;;;;4935493;29;20445;-81
2022/11/04 15:38:28;;;;;;;9.40;8.70;;;11.50;99.90;;;;;;4935596;29;20203;-82
2022/11/04 15:42:35;;;;;;;9.50;8.90;;;11.40;99.90;;;;;;4928279;29;20223;-81
2022/11/04 15:43:42;;;;;;;10.10;9.50;;;11.30;99.90;;;;;;4935314;29;20518;-81
2022/11/04 15:46:17;;;;;;;9.20;8.70;;;11.30;99.90;;;;;;4936387;29;20195;-82
2022/11/04 15:49:00;;;;;;;8.97;8.40;;;11.20;99.90;;;;;;4936312;29;20640;-82
2022/11/04 15:51:30;;;;;;;8.60;8.10;;;11.10;99.90;;;;;;4929804;29;20272;-81
2022/11/04 15:54:02;;;;;;;8.87;8.37;;;11.00;99.90;;;;;;4937780;29;20200;-83
2022/11/04 15:56:33;;;;;;;9.40;8.80;;;10.90;99.90;;;;;;4930392;29;20594;-84
2022/11/04 15:59:01;;;;;;;9.57;8.87;;;10.80;99.90;;;;;;4939660;29;20202;-85
2022/11/04 16:01:28;;;;;;;9.37;8.77;;;10.70;99.90;;;;;;4931204;29;20231;-84
2022/11/04 16:03:57;;;;;;;10.30;9.60;;;10.60;99.90;;;;;;4939627;29;20207;-84
2022/11/04 16:06:37;;;;;;;9.63;8.97;;;10.50;99.90;;;;;;4937960;29;20664;-87
2022/11/04 16:09:19;;;;;;;10.40;9.80;;;10.40;99.90;;;;;;4937278;29;20207;-80
2022/11/04 16:12:04;;;;;;;10.07;9.47;;;10.30;99.90;;;;;;4938296;29;20688;-81
2022/11/04 16:14:31;;;;;;;9.80;9.20;;;10.10;99.90;;;;;;4937051;29;20195;-81